AirNav   Bose ProFlight Series 2 Headset
 
 864 users online  

0FL7 WKMG-TV Heliport
Orlando, Florida, USA

GOING TO ORLANDO?


FAA INFORMATION EFFECTIVE 02 JANUARY 2020

Location

FAA Identifier: 0FL7
Lat/Long: 28-35-38.7000N 081-25-11.6000W
28-35.645000N 081-25.193333W
28.5940833,-81.4198889
(estimated)
Elevation: 98.8 ft. / 30.1 m (surveyed)
Variation: 04W (1995)
From city: 4 miles NW of ORLANDO, FL
Time zone: UTC -5 (UTC -4 during Daylight Saving Time)
Zip code: 32810

Heliport Operations

Heliport use: Private use. Permission required prior to landing
Activation date: 04/1999
Control tower: no
ARTCC: JACKSONVILLE CENTER
FSS: SAINT PETERSBURG FLIGHT SERVICE STATION
Attendance: DAWN-DUSK
Wind indicator: yes
Segmented circle: no
Lights: SS-SR

Heliport Communications

WX ASOS at ORL (5 nm SE): PHONE 407-658-6753
WX ASOS at MCO (11 nm SE): PHONE 407-855-5235
WX ASOS at SFB (15 nm NE): PHONE 407-321-9384
WX AWOS-3PT at ISM (18 nm S): 128.775 (407-847-0533)

Nearby radio navigation aids

VOR radial/distance  VOR name  Freq  Var
ORLr305/5.4ORLANDO VORTAC112.2000E

Heliport Services

Runway Information

Helipad H1

Dimensions: 35 x 35 ft. / 11 x 11 m
Surface: concrete
Runway edge lights: PERI
Latitude: 28-35.645000N
Longitude: 081-25.193333W
Elevation: 98.8 ft.
Traffic pattern: leftleft

Heliport Ownership and Management from official FAA records

Ownership: Privately-owned
Owner: GRAHAM MEDIA GROUP, ORLANDO, INC.
4466 N. JOHN YOUNG PARKWAY
ORLANDO, FL 32804
Phone 407-291-6000
Manager: FRANK TORBERT
4466 N. JOHN YOUNG PARKWAY
ORLANDO, FL 32804
Phone 407-291-6000

Additional Remarks

FOR CD CTC ORLANDO APCH AT 407-852-7553.

Instrument Procedures

There are no published instrument procedures at 0FL7.

Some nearby airports with instrument procedures:

KORL - Executive Airport (5 nm SE)
X04 - Orlando Apopka Airport (11 nm NW)
KMCO - Orlando International Airport (11 nm SE)
KSFB - Orlando Sanford International Airport (15 nm NE)
KISM - Kissimmee Gateway Airport (18 nm S)
 
Loc | Ops | Rwys | IFR | FBO | Links
Com | Nav | Svcs | Stats | Notes


 
Area around 0FL7 (WKMG-TV Heliport)
 
Road maps at: MapQuest Bing Google
 
Aerial photo
No photo
 
Sectional chart

 
Airport distance calculator
Flying to WKMG-TV Heliport? Find the distance to fly.

From to 0FL7

Sunrise and sunset
Times for 22-Jan-2020
 Local
(UTC-5)
 Zulu
(UTC)
Morning civil twilight06:5411:54
Sunrise07:1912:19
Sunset17:5622:56
Evening civil twilight18:2123:21

Current date and time
Zulu (UTC)  22-Jan-2020 12:01:29
Local (UTC-5)  22-Jan-2020 07:01:29
 
METAR
KORL 
5nm SE 
221153Z 34008KT 10SM FU CLR 02/M07 A3017 RMK AO2 SLP224 T00171072 10039 20017 55001
KMCO 
12nm SE 
221153Z 34013KT 10SM FEW040 FEW250 02/M06 A3017 RMK AO2 SLP215 T00221056 10039 20022 55003 $
KSFB 
15nm NE 
221153Z 10SM SCT020 02/M05 A3017 RMK AO2 SLP216 60000 T00221050 10039 20022 53002 $
KISM 
19nm S 
221156Z 35011KT 10SM CLR 03/M03 A3017 RMK AO2 SLP218 6//// 7//// T00331028 10044 20022 55008 PNO $
TAF
KMCO 
12nm SE 
220857Z 2209/2312 33016G24KT P6SM FEW035 FM221500 35015G23KT P6SM SCT035 FM221800 01016G24KT P6SM BKN035 FM230000 01010KT P6SM BKN035
KSFB 
15nm NE 
220540Z 2206/2306 33013G22KT P6SM SKC FM221500 35014G22KT P6SM SCT035 FM221800 02015G24KT P6SM BKN035 FM230000 36010KT P6SM BKN035
KISM 
19nm S 
220540Z 2206/2306 33013G21KT P6SM SKC FM221500 34014G22KT P6SM SCT035 FM221800 02015G24KT P6SM BKN035 FM230000 01010KT P6SM BKN035
NOTAMs
Click for the latest NOTAMs
NOTAMs are issued by the DoD/FAA and will open in a separate window not controlled by AirNav.

 

 
 

Would you like to see your business listed on this page?

 If your business provides an interesting product or service to pilots, flight crews, aircraft, or users of the WKMG-TV Heliport, you should consider listing it here.  To start the listing process, click on the button below
 
Add a business
 

Other Pages about WKMG-TV Heliport

Update a link
 
Copyright © AirNav, LLC. All rights reserved. Privacy Policy  Contact